Vancleve, Missouri
Current Conditions -  °F | °C
As of 1:53 AM on Friday 24 Oct 2014 (Local Time) from KVIH Reporting Station
Overcast Overcast  
Wind Chill: 54°   Ceiling: 2500
Heat Index: 54°   Visibility: 10mi
Dew Point: 48°   Wind: 7mph
Humidity: 80%   Direction: 210°SSW
Pressure: 30.09"   Gusts: NA
Location:  38.2385°N, 92.1206°W
Report Text: KVIH 240653Z AUTO 21006KT 10SM BKN025 OVC031 12/09 A3009 RMK AO2 SLP188 T01220089
Loading
Personal Weather Stations






























Interactive Weather Map
Tropical Storm Tracking
New forecast layout! Learn more

10-Day Weather Forecast

Advertisements
Track Severe Weather on mobile